createdAt,value
2023-01-03T00:02:06.308Z,44.28
2023-01-03T00:04:33.060Z,48.35
2023-01-03T00:06:59.708Z,48.03
2023-01-03T00:09:26.645Z,47.30
2023-01-03T00:12:12.973Z,46.45
2023-01-03T00:14:42.519Z,45.35
2023-01-03T00:17:10.277Z,45.55
2023-01-03T00:19:40.570Z,44.75
2023-01-03T00:22:07.613Z,42.70
2023-01-03T00:24:34.233Z,46.20
2023-01-03T00:27:00.927Z,46.22
2023-01-03T00:29:27.735Z,46.60
2023-01-03T00:31:54.627Z,45.05
2023-01-03T00:34:21.408Z,42.00
2023-01-03T00:36:48.333Z,40.05
2023-01-03T00:39:15.129Z,38.65
2023-01-03T00:41:42.488Z,38.70
2023-01-03T00:44:09.177Z,38.22
2023-01-03T00:46:35.987Z,31.88
2023-01-03T00:49:03.880Z,31.05
2023-01-03T00:51:33.073Z,32.75
2023-01-03T00:54:01.510Z,54.63
2023-01-03T00:56:33.236Z,62.35
2023-01-03T00:59:00.382Z,59.05
2023-01-03T01:01:33.869Z,61.17
2023-01-03T01:04:11.889Z,54.35
2023-01-03T01:06:50.689Z,44.72
2023-01-03T01:09:23.645Z,42.47
2023-01-03T01:11:51.196Z,43.53
2023-01-03T01:14:21.047Z,49.67
2023-01-03T01:16:53.317Z,45.35
2023-01-03T01:21:48.943Z,50.90
2023-01-03T01:24:17.926Z,47.78
2023-01-03T01:26:46.327Z,58.65
2023-01-03T01:29:14.208Z,68.88
2023-01-03T01:31:41.968Z,66.22
2023-01-03T01:34:09.186Z,64.57
2023-01-03T01:36:37.772Z,74.18
2023-01-03T01:39:08.323Z,89.55
2023-01-03T01:41:56.201Z,86.47
2023-01-03T01:44:47.313Z,82.32
2023-01-03T01:47:32.695Z,66.88
2023-01-03T01:50:29.680Z,59.72
2023-01-03T01:53:01.276Z,62.97
2023-01-03T01:55:37.255Z,67.65
2023-01-03T01:58:06.298Z,61.83
2023-01-03T02:00:33.482Z,65.13
2023-01-03T02:03:00.711Z,59.25
2023-01-03T02:05:28.542Z,58.88
2023-01-03T02:07:55.834Z,59.63
2023-01-03T02:10:58.101Z,70.57
2023-01-03T02:13:38.524Z,74.45
2023-01-03T02:16:14.238Z,75.55
2023-01-03T02:18:51.474Z,78.63
2023-01-03T02:21:37.801Z,78.75
2023-01-03T02:24:23.236Z,69.20
2023-01-03T02:26:59.106Z,71.10
2023-01-03T02:29:46.024Z,70.57
2023-01-03T02:32:36.714Z,69.38
2023-01-03T02:35:28.259Z,71.28
2023-01-03T02:38:21.853Z,68.82
2023-01-03T02:41:25.473Z,71.25
2023-01-03T02:44:11.325Z,68.00
2023-01-03T02:46:42.605Z,68.47
2023-01-03T02:49:15.882Z,69.97
2023-01-03T02:51:57.688Z,68.28
2023-01-03T02:54:47.067Z,70.35
2023-01-03T02:57:22.321Z,67.97
2023-01-03T02:59:57.743Z,65.90
2023-01-03T03:02:32.434Z,75.82
2023-01-03T03:05:02.723Z,73.15
2023-01-03T03:07:36.833Z,74.95
2023-01-03T03:10:23.275Z,72.78
2023-01-03T03:13:13.223Z,73.90
2023-01-03T03:15:52.172Z,81.90
2023-01-03T03:18:40.298Z,75.20
2023-01-03T03:21:28.940Z,71.90
2023-01-03T03:24:20.223Z,69.75
2023-01-03T03:26:49.976Z,68.43
2023-01-03T03:29:18.844Z,70.63
2023-01-03T03:31:50.800Z,72.00
2023-01-03T03:34:32.626Z,62.72
2023-01-03T03:37:20.934Z,58.72
2023-01-03T03:40:07.003Z,54.75
2023-01-03T03:43:00.976Z,52.90
2023-01-03T03:45:39.705Z,51.60
2023-01-03T03:48:14.006Z,51.78
2023-01-03T03:50:46.860Z,46.97
2023-01-03T03:53:16.205Z,52.88
2023-01-03T03:55:56.779Z,54.92
2023-01-03T03:58:39.016Z,58.22
2023-01-03T04:01:07.613Z,59.08
2023-01-03T04:03:37.165Z,59.38
2023-01-03T04:06:10.809Z,57.78
2023-01-03T04:08:37.511Z,58.28
2023-01-03T04:11:07.742Z,56.90
2023-01-03T04:13:36.415Z,58.67
2023-01-03T04:16:04.332Z,62.88
2023-01-03T04:18:31.548Z,57.92
2023-01-03T04:20:58.345Z,56.55
2023-01-03T04:23:25.354Z,58.05
2023-01-03T04:25:52.175Z,97.82
2023-01-03T04:28:19.395Z,54.97
2023-01-03T04:30:47.094Z,52.97
2023-01-03T04:33:14.285Z,49.33
2023-01-03T04:35:41.153Z,48.17
2023-01-03T04:38:09.432Z,47.60
2023-01-03T04:40:38.678Z,49.13
2023-01-03T04:43:24.053Z,52.67
2023-01-03T04:45:51.511Z,54.90
2023-01-03T04:48:18.171Z,53.95
2023-01-03T04:50:56.110Z,54.92
2023-01-03T04:53:24.684Z,57.10
2023-01-03T04:55:52.802Z,58.47
2023-01-03T04:58:20.495Z,56.58
2023-01-03T05:00:47.460Z,57.55
2023-01-03T05:03:14.641Z,52.60
2023-01-03T05:05:41.870Z,54.65
2023-01-03T05:08:10.865Z,58.20
2023-01-03T05:10:41.392Z,57.22
2023-01-03T05:13:08.851Z,52.40
2023-01-03T05:15:38.657Z,56.03
2023-01-03T05:18:05.786Z,61.38
2023-01-03T05:20:51.073Z,55.38
2023-01-03T05:23:37.260Z,55.22
2023-01-03T05:26:19.406Z,57.63
2023-01-03T05:28:49.953Z,59.53
2023-01-03T05:31:16.647Z,65.22
2023-01-03T05:33:43.417Z,60.85
2023-01-03T05:36:10.530Z,73.10
2023-01-03T05:38:38.206Z,65.55
2023-01-03T05:41:05.564Z,66.15
2023-01-03T05:43:32.230Z,62.83
2023-01-03T05:45:58.889Z,64.85
2023-01-03T05:48:25.625Z,62.85
2023-01-03T05:50:52.344Z,61.30
2023-01-03T05:53:18.999Z,72.53
2023-01-03T05:55:45.580Z,69.50
2023-01-03T05:58:13.266Z,61.10
2023-01-03T06:00:40.196Z,65.18
2023-01-03T06:03:07.776Z,61.10
2023-01-03T06:05:34.575Z,62.00
2023-01-03T06:08:02.398Z,59.95
2023-01-03T06:10:29.139Z,59.45
2023-01-03T06:12:56.161Z,62.97
2023-01-03T06:15:22.855Z,67.47
2023-01-03T06:17:57.596Z,68.22
2023-01-03T06:20:26.240Z,78.40
2023-01-03T06:22:53.624Z,74.63
2023-01-03T06:25:20.546Z,78.90
2023-01-03T06:27:47.256Z,76.18
2023-01-03T06:30:15.794Z,72.50
2023-01-03T06:32:43.333Z,67.03
2023-01-03T06:35:10.291Z,69.28
2023-01-03T06:37:36.923Z,69.43
2023-01-03T06:40:04.010Z,69.47
2023-01-03T06:42:45.338Z,63.10
2023-01-03T06:45:32.621Z,71.75
2023-01-03T06:48:22.941Z,64.97
2023-01-03T06:51:08.104Z,58.63
2023-01-03T06:53:39.689Z,60.95
2023-01-03T06:56:07.181Z,71.75
2023-01-03T06:58:34.098Z,70.75
2023-01-03T07:01:03.873Z,68.15
2023-01-03T07:03:31.903Z,64.45
2023-01-03T07:05:58.801Z,58.83
2023-01-03T07:08:25.394Z,53.45
2023-01-03T07:10:52.152Z,53.92
2023-01-03T07:13:37.341Z,54.08
2023-01-03T07:16:04.065Z,49.25
2023-01-03T07:18:31.606Z,55.00
2023-01-03T07:20:58.285Z,48.75
2023-01-03T07:23:25.004Z,49.63
2023-01-03T07:25:55.411Z,50.28
2023-01-03T07:28:22.198Z,51.55
2023-01-03T07:30:49.080Z,53.65
2023-01-03T07:33:17.083Z,58.30
2023-01-03T07:35:43.783Z,52.92
2023-01-03T07:38:12.167Z,53.53
2023-01-03T07:40:39.695Z,49.45
2023-01-03T07:43:24.908Z,50.83
2023-01-03T07:45:51.738Z,53.40
2023-01-03T07:48:18.427Z,50.05
2023-01-03T07:50:45.175Z,49.45
2023-01-03T07:53:16.798Z,49.15
2023-01-03T07:55:45.483Z,44.97
2023-01-03T07:58:12.345Z,46.92
2023-01-03T08:00:39.838Z,48.53
2023-01-03T08:03:10.879Z,48.55
2023-01-03T08:05:38.585Z,51.00
2023-01-03T08:08:06.278Z,51.58
2023-01-03T08:10:53.293Z,50.72
2023-01-03T08:13:20.148Z,61.28
2023-01-03T08:15:51.852Z,60.47
2023-01-03T08:18:26.078Z,61.10
2023-01-03T08:20:55.412Z,67.32
2023-01-03T08:23:26.356Z,65.63
2023-01-03T08:26:03.939Z,64.38
2023-01-03T08:28:31.115Z,62.92
2023-01-03T08:31:00.156Z,62.55
2023-01-03T08:33:31.272Z,59.80
2023-01-03T08:36:03.451Z,51.92
2023-01-03T08:38:43.186Z,50.65
2023-01-03T08:41:10.853Z,56.92
2023-01-03T08:43:41.442Z,61.28
2023-01-03T08:46:11.758Z,77.65
2023-01-03T08:48:38.966Z,70.30
2023-01-03T08:51:05.725Z,78.13
2023-01-03T08:53:32.470Z,73.00
2023-01-03T08:55:59.085Z,61.75
2023-01-03T08:58:25.879Z,56.60
2023-01-03T09:00:52.576Z,59.35
2023-01-03T09:03:19.575Z,59.45
2023-01-03T09:05:46.483Z,58.45
2023-01-03T09:08:13.176Z,61.22
2023-01-03T09:10:47.070Z,60.30
2023-01-03T09:13:14.463Z,66.47
2023-01-03T09:15:41.319Z,62.80
2023-01-03T09:18:08.992Z,57.38
2023-01-03T09:20:35.821Z,55.47
2023-01-03T09:23:02.501Z,55.08
2023-01-03T09:25:34.868Z,63.78
2023-01-03T09:28:03.663Z,61.30
2023-01-03T09:30:30.329Z,60.92
2023-01-03T09:32:57.453Z,56.47
2023-01-03T09:35:24.255Z,57.65
2023-01-03T09:37:51.021Z,58.75
2023-01-03T09:40:17.936Z,61.42
2023-01-03T09:43:03.541Z,59.30
2023-01-03T09:45:34.122Z,57.35
2023-01-03T09:48:03.638Z,59.03
2023-01-03T09:50:50.916Z,56.53
2023-01-03T09:53:42.203Z,60.47
2023-01-03T09:56:31.908Z,69.32
2023-01-03T09:59:20.586Z,81.55
2023-01-03T10:02:25.143Z,79.07
2023-01-03T10:05:13.165Z,82.03
2023-01-03T10:07:55.067Z,77.28
2023-01-03T10:10:46.665Z,74.50
2023-01-03T10:13:35.033Z,65.43
2023-01-03T10:16:14.640Z,63.03
2023-01-03T10:18:57.826Z,61.30
2023-01-03T10:22:01.439Z,57.38
2023-01-03T10:24:37.131Z,56.10
2023-01-03T10:27:25.299Z,55.67
2023-01-03T10:29:56.939Z,57.00
2023-01-03T10:32:57.689Z,64.25
2023-01-03T10:35:30.226Z,63.58
2023-01-03T10:37:58.097Z,63.40
2023-01-03T10:40:47.933Z,66.25
2023-01-03T10:43:31.761Z,62.38
2023-01-03T10:46:02.139Z,63.90
2023-01-03T10:49:08.369Z,58.90
2023-01-03T10:51:42.491Z,55.03
2023-01-03T10:54:26.765Z,56.33
2023-01-03T10:56:53.522Z,58.33
2023-01-03T10:59:33.332Z,62.70
2023-01-03T11:02:02.471Z,62.72
2023-01-03T11:04:31.479Z,72.10
2023-01-03T11:07:09.110Z,76.50
2023-01-03T11:09:52.303Z,74.88
2023-01-03T11:12:41.585Z,72.15
2023-01-03T11:15:17.729Z,72.75
2023-01-03T11:18:04.160Z,67.05
2023-01-03T11:20:42.229Z,71.15
2023-01-03T11:23:18.215Z,63.65
2023-01-03T11:26:02.775Z,68.43
2023-01-03T11:28:45.032Z,67.70
2023-01-03T11:31:33.815Z,66.38
2023-01-03T11:34:08.110Z,71.55
2023-01-03T11:36:52.079Z,74.50
2023-01-03T11:39:24.581Z,69.95
2023-01-03T11:42:03.774Z,70.35
2023-01-03T11:45:07.937Z,69.50
2023-01-03T11:48:06.617Z,68.28
2023-01-03T11:50:53.874Z,67.65
2023-01-03T11:53:34.872Z,73.78
2023-01-03T11:56:27.795Z,71.35
2023-01-03T11:59:14.199Z,67.63
2023-01-03T12:01:55.719Z,67.38
2023-01-03T12:04:22.408Z,66.63
2023-01-03T12:10:00.320Z,67.95
2023-01-03T12:13:10.524Z,67.45
2023-01-03T12:15:58.742Z,65.22
2023-01-03T12:18:38.084Z,64.68
2023-01-03T12:21:11.733Z,69.15
2023-01-03T12:23:48.720Z,64.70
2023-01-03T12:26:16.861Z,65.32
2023-01-03T12:28:55.891Z,64.35
2023-01-03T12:31:26.256Z,62.53
2023-01-03T12:34:20.905Z,61.88
2023-01-03T12:37:13.828Z,62.92
2023-01-03T12:39:46.295Z,65.45
2023-01-03T12:42:31.404Z,65.65
2023-01-03T12:45:18.320Z,66.20
2023-01-03T12:48:07.633Z,62.15
2023-01-03T12:50:48.503Z,63.78
2023-01-03T12:53:42.012Z,63.05
2023-01-03T12:56:25.733Z,62.42
2023-01-03T12:59:21.643Z,63.97
2023-01-03T13:01:59.255Z,61.90
2023-01-03T13:04:40.317Z,58.35
2023-01-03T13:07:15.106Z,60.10
2023-01-03T13:09:48.175Z,59.00
2023-01-03T13:12:19.064Z,52.20
2023-01-03T13:15:15.864Z,53.35
2023-01-03T13:17:49.784Z,51.65
2023-01-03T13:20:32.677Z,43.28
2023-01-03T13:23:01.163Z,31.70
2023-01-03T13:25:40.246Z,30.83
2023-01-03T13:28:31.429Z,24.50
2023-01-03T13:31:19.129Z,25.17
2023-01-03T13:33:49.044Z,17.02
2023-01-03T13:36:18.646Z,39.42
2023-01-03T13:38:46.062Z,21.92
2023-01-03T13:41:31.263Z,35.95
2023-01-03T13:44:16.026Z,39.70
2023-01-03T13:46:43.286Z,30.00
2023-01-03T13:49:19.177Z,12.98
2023-01-03T13:51:51.896Z,7.82
2023-01-03T13:54:18.792Z,9.70
2023-01-03T13:56:45.354Z,10.27
2023-01-03T13:59:15.146Z,7.57
2023-01-03T14:02:06.451Z,5.80
2023-01-03T14:04:54.764Z,7.15
2023-01-03T14:07:55.260Z,4.13
2023-01-03T14:10:59.560Z,6.82
2023-01-03T14:13:53.423Z,5.55
2023-01-03T14:16:39.871Z,5.55
2023-01-03T14:19:25.726Z,5.80
2023-01-03T14:22:28.148Z,8.93
2023-01-03T14:24:57.684Z,7.13
2023-01-03T14:27:32.298Z,8.00
2023-01-03T14:29:59.183Z,6.82
2023-01-03T14:32:34.471Z,5.55
2023-01-03T14:35:02.561Z,7.15
2023-01-03T14:37:30.349Z,7.18
2023-01-03T14:40:03.742Z,6.18
2023-01-03T14:42:30.554Z,7.88
2023-01-03T14:44:58.123Z,6.13
2023-01-03T14:47:37.905Z,6.93
2023-01-03T14:50:07.500Z,7.93
2023-01-03T14:52:37.915Z,7.85
2023-01-03T14:55:08.535Z,9.98
2023-01-03T14:57:39.631Z,7.78
2023-01-03T15:00:08.661Z,9.35
2023-01-03T15:02:40.884Z,8.18
2023-01-03T15:05:23.473Z,7.03
2023-01-03T15:10:21.809Z,9.40
2023-01-03T15:13:00.749Z,8.02
2023-01-03T15:15:40.229Z,8.20
2023-01-03T15:18:09.666Z,8.98
2023-01-03T15:20:40.564Z,7.20
2023-01-03T15:23:08.322Z,9.15
2023-01-03T15:25:41.122Z,8.18
2023-01-03T15:28:22.476Z,12.10
2023-01-03T15:30:50.695Z,10.10
2023-01-03T15:33:24.871Z,9.75
2023-01-03T15:35:54.355Z,12.07
2023-01-03T15:38:49.000Z,10.00
2023-01-03T15:41:38.410Z,9.68
2023-01-03T15:44:06.847Z,8.63
2023-01-03T15:46:33.757Z,8.55
2023-01-03T15:49:02.514Z,9.80
2023-01-03T15:51:29.226Z,9.70
2023-01-03T15:53:55.908Z,7.22
2023-01-03T15:56:35.185Z,7.45
2023-01-03T15:59:07.091Z,6.05
2023-01-03T16:01:33.962Z,7.50
2023-01-03T16:04:01.016Z,8.05
2023-01-03T16:06:27.790Z,9.85
2023-01-03T16:08:54.423Z,8.05
2023-01-03T16:11:33.315Z,7.32
2023-01-03T16:14:03.713Z,6.75
2023-01-03T16:16:40.746Z,8.05
2023-01-03T16:19:15.009Z,8.50
2023-01-03T16:21:51.429Z,8.52
2023-01-03T16:24:28.554Z,8.13
2023-01-03T16:26:56.994Z,8.30
2023-01-03T16:29:23.728Z,8.82
2023-01-03T16:31:50.805Z,9.60
2023-01-03T16:34:20.974Z,11.45
2023-01-03T16:36:48.483Z,15.05
2023-01-03T16:39:23.171Z,16.38
2023-01-03T16:42:09.731Z,15.25
2023-01-03T16:44:37.949Z,15.50
2023-01-03T16:47:11.893Z,16.02
2023-01-03T16:49:38.865Z,16.85
2023-01-03T16:52:06.411Z,17.48
2023-01-03T16:54:34.558Z,16.17
2023-01-03T16:57:01.125Z,16.08
2023-01-03T16:59:27.833Z,12.40
2023-01-03T17:01:54.631Z,11.43
2023-01-03T17:04:21.591Z,10.73
2023-01-03T17:06:48.321Z,9.68
2023-01-03T17:09:22.735Z,9.70
2023-01-03T17:11:49.452Z,10.68
2023-01-03T17:14:21.716Z,11.38
2023-01-03T17:19:52.205Z,12.98
2023-01-03T17:22:05.295Z,13.82
2023-01-03T17:24:32.036Z,13.20
2023-01-03T17:27:04.475Z,14.05
2023-01-03T17:29:31.734Z,13.95
2023-01-03T17:31:58.656Z,11.30
2023-01-03T17:34:26.771Z,12.13
2023-01-03T17:36:54.940Z,11.27
2023-01-03T17:39:22.530Z,9.85
2023-01-03T17:42:07.712Z,9.00
2023-01-03T17:44:34.297Z,12.32
2023-01-03T17:47:33.924Z,13.73
2023-01-03T17:50:01.234Z,13.45
2023-01-03T17:52:33.925Z,13.63
2023-01-03T17:55:00.962Z,15.38
2023-01-03T17:57:28.161Z,16.58
2023-01-03T17:59:54.896Z,17.45
2023-01-03T18:02:24.607Z,17.98
2023-01-03T18:07:38.871Z,20.17
2023-01-03T18:10:07.636Z,18.05
2023-01-03T18:12:34.494Z,14.55
2023-01-03T18:15:01.205Z,14.10
2023-01-03T18:17:31.166Z,14.52
2023-01-03T18:19:59.016Z,14.18
2023-01-03T18:22:26.189Z,11.15
2023-01-03T18:24:54.264Z,11.20
2023-01-03T18:27:22.932Z,11.13
2023-01-03T18:29:49.748Z,9.73
2023-01-03T18:32:30.295Z,9.57
2023-01-03T18:34:58.167Z,9.02
2023-01-03T18:37:30.345Z,9.35
2023-01-03T18:39:57.033Z,8.48
2023-01-03T18:42:42.133Z,8.52
2023-01-03T18:45:12.276Z,9.98
2023-01-03T18:47:39.226Z,8.85
2023-01-03T18:50:06.880Z,9.25
2023-01-03T18:52:37.831Z,9.50
2023-01-03T18:55:07.224Z,7.88
2023-01-03T18:57:34.342Z,8.63
2023-01-03T19:00:03.403Z,9.05
2023-01-03T19:02:30.633Z,9.90
2023-01-03T19:04:57.373Z,9.90
2023-01-03T19:07:32.996Z,9.38
2023-01-03T19:10:00.475Z,8.73
2023-01-03T19:12:27.592Z,8.90
2023-01-03T19:14:55.857Z,10.15
2023-01-03T19:17:23.357Z,8.90
2023-01-03T19:19:52.084Z,7.57
2023-01-03T19:22:40.210Z,9.25
2023-01-03T19:25:13.851Z,7.57
2023-01-03T19:27:45.201Z,7.47
2023-01-03T19:30:21.818Z,7.83
2023-01-03T19:32:53.139Z,9.35
2023-01-03T19:35:20.450Z,8.60
2023-01-03T19:37:47.267Z,8.75
2023-01-03T19:40:16.084Z,7.82
2023-01-03T19:42:50.950Z,7.07
2023-01-03T19:45:24.509Z,7.45
2023-01-03T19:47:51.208Z,6.97
2023-01-03T19:50:24.278Z,6.75
2023-01-03T19:52:51.889Z,7.65
2023-01-03T19:55:18.591Z,8.00
2023-01-03T19:57:48.741Z,7.65
2023-01-03T20:00:18.637Z,7.53
2023-01-03T20:02:45.848Z,7.97
2023-01-03T20:05:20.270Z,8.45
2023-01-03T20:07:47.873Z,7.18
2023-01-03T20:10:38.945Z,9.13
2023-01-03T20:13:06.123Z,8.15
2023-01-03T20:15:36.771Z,9.60
2023-01-03T20:18:03.972Z,8.90
2023-01-03T20:20:33.015Z,8.10
2023-01-03T20:23:05.629Z,8.60
2023-01-03T20:25:34.901Z,8.68
2023-01-03T20:28:01.822Z,8.38
2023-01-03T20:30:31.429Z,8.55
2023-01-03T20:32:58.533Z,8.63
2023-01-03T20:38:20.919Z,7.55
2023-01-03T20:40:47.693Z,8.45
2023-01-03T20:43:15.428Z,8.27
2023-01-03T20:45:42.158Z,8.52
2023-01-03T20:48:18.033Z,7.40
2023-01-03T20:50:50.364Z,7.75
2023-01-03T20:53:22.325Z,9.10
2023-01-03T20:55:50.036Z,7.13
2023-01-03T20:58:21.182Z,7.47
2023-01-03T21:00:48.363Z,7.15
2023-01-03T21:03:15.246Z,7.03
2023-01-03T21:05:42.287Z,7.63
2023-01-03T21:08:33.195Z,7.07
2023-01-03T21:11:00.170Z,7.07
2023-01-03T21:13:26.796Z,7.30
2023-01-03T21:15:53.621Z,8.45
2023-01-03T21:18:20.335Z,7.65
2023-01-03T21:20:47.190Z,8.73
2023-01-03T21:23:18.555Z,8.50
2023-01-03T21:25:45.715Z,7.17
2023-01-03T21:28:12.927Z,7.80
2023-01-03T21:30:40.798Z,7.47
2023-01-03T21:33:16.310Z,7.50
2023-01-03T21:35:43.169Z,7.40
2023-01-03T21:38:10.170Z,8.18
2023-01-03T21:40:37.095Z,7.90
2023-01-03T21:43:05.223Z,8.10
2023-01-03T21:45:35.297Z,7.57
2023-01-03T21:48:04.465Z,7.88
2023-01-03T21:50:32.849Z,7.43
2023-01-03T21:52:59.643Z,8.63
2023-01-03T21:55:26.604Z,7.50
2023-01-03T21:57:57.237Z,8.55
2023-01-03T22:00:24.045Z,8.35
2023-01-03T22:03:10.158Z,8.90
2023-01-03T22:05:36.833Z,8.48
2023-01-03T22:08:03.875Z,8.90
2023-01-03T22:10:31.245Z,8.60
2023-01-03T22:13:01.267Z,9.30
2023-01-03T22:15:28.300Z,9.15
2023-01-03T22:17:55.574Z,9.88
2023-01-03T22:20:24.851Z,8.88
2023-01-03T22:22:51.788Z,9.82
2023-01-03T22:25:22.538Z,9.57
2023-01-03T22:27:49.875Z,9.77
2023-01-03T22:30:19.455Z,9.15
2023-01-03T22:32:47.364Z,9.70
2023-01-03T22:35:15.525Z,9.30
2023-01-03T22:37:42.400Z,9.00
2023-01-03T22:40:13.125Z,11.80
2023-01-03T22:42:39.902Z,14.57
2023-01-03T22:45:08.123Z,9.85
2023-01-03T22:47:36.533Z,10.15
2023-01-03T22:50:04.713Z,9.27
2023-01-03T22:52:31.426Z,9.63
2023-01-03T22:54:58.268Z,9.20
2023-01-03T22:57:25.029Z,9.32
2023-01-03T22:59:51.772Z,9.85
2023-01-03T23:02:24.648Z,9.45
2023-01-03T23:04:54.974Z,10.45
2023-01-03T23:07:21.678Z,9.65
2023-01-03T23:09:48.443Z,9.77
2023-01-03T23:12:33.591Z,9.98
2023-01-03T23:15:00.244Z,10.38
2023-01-03T23:17:45.322Z,10.38
2023-01-03T23:20:12.276Z,10.75
2023-01-03T23:22:38.998Z,10.50
2023-01-03T23:25:06.029Z,10.10
2023-01-03T23:27:32.669Z,10.32
2023-01-03T23:29:59.242Z,9.65
2023-01-03T23:32:25.993Z,9.65
2023-01-03T23:34:52.597Z,9.98
2023-01-03T23:37:19.248Z,9.65
2023-01-03T23:39:45.879Z,9.60
2023-01-03T23:42:12.695Z,9.13
2023-01-03T23:44:39.353Z,9.45
2023-01-03T23:47:11.425Z,9.85
2023-01-03T23:49:39.017Z,9.70
2023-01-03T23:52:05.623Z,9.57
2023-01-03T23:54:32.553Z,9.52
2023-01-03T23:56:59.283Z,10.10
2023-01-03T23:59:25.959Z,8.75
